Time;durP1;ratioP1;P1;durP2;ratioP2;P2;SDS_P1;SDS_P2;PMS_P1;PMS_P2;Temp;Humidity;BMP_temperature;BMP_pressure;BME280_temperature;BME280_humidity;BME280_pressure;Samples;Min_cycle;Max_cycle;Signal;HPM_P1;HPM_P2
2023/01/16 00:00:31;;;;;;;5.50;1.83;;;3.60;99.90;;;;;;5072433;28;20093;-86
2023/01/16 00:02:57;;;;;;;4.78;1.77;;;3.70;99.90;;;;;;5071793;28;20132;-85
2023/01/16 00:05:23;;;;;;;6.68;1.88;;;4.10;99.90;;;;;;5072322;28;20051;-86
2023/01/16 00:07:48;;;;;;;3.78;1.45;;;4.40;99.90;;;;;;5071814;28;20044;-86
2023/01/16 00:10:16;;;;;;;4.75;1.70;;;3.90;99.90;;;;;;5072069;28;20049;-85
2023/01/16 00:12:42;;;;;;;5.80;1.40;;;3.90;99.90;;;;;;5071921;28;20052;-88
2023/01/16 00:15:08;;;;;;;9.20;1.73;;;3.90;99.90;;;;;;5072314;28;20367;-86
2023/01/16 00:17:33;;;;;;;6.80;1.85;;;3.90;99.90;;;;;;5072034;28;20048;-85
2023/01/16 00:19:59;;;;;;;5.40;1.60;;;4.00;99.90;;;;;;5071662;28;20044;-86
2023/01/16 00:22:25;;;;;;;1.95;1.40;;;4.00;99.90;;;;;;5071767;28;20063;-86
2023/01/16 00:24:50;;;;;;;6.03;1.50;;;4.00;99.90;;;;;;5070482;28;20056;-85
2023/01/16 00:27:16;;;;;;;6.40;1.98;;;4.20;99.90;;;;;;5071148;28;20055;-86
2023/01/16 00:29:42;;;;;;;6.10;1.67;;;4.10;99.90;;;;;;5070854;28;20437;-88
2023/01/16 00:32:10;;;;;;;6.70;1.58;;;4.50;99.90;;;;;;5070035;28;20048;-86
2023/01/16 00:34:35;;;;;;;5.72;1.63;;;4.10;99.90;;;;;;5054589;28;20048;-86
2023/01/16 00:37:01;;;;;;;7.80;2.20;;;4.20;99.90;;;;;;5070410;28;20048;-86
2023/01/16 00:39:27;;;;;;;7.18;2.50;;;4.60;99.90;;;;;;5070558;28;20052;-86
2023/01/16 00:41:52;;;;;;;6.82;2.17;;;4.20;99.90;;;;;;5070333;28;20045;-87
2023/01/16 00:44:19;;;;;;;4.43;1.60;;;4.60;99.90;;;;;;5070874;28;20535;-86
2023/01/16 00:46:45;;;;;;;4.25;1.25;;;4.20;99.90;;;;;;5070395;28;20068;-89
2023/01/16 00:49:10;;;;;;;5.13;1.45;;;4.20;99.90;;;;;;5070681;28;20490;-86
2023/01/16 00:51:36;;;;;;;9.10;2.30;;;4.20;99.90;;;;;;5070535;28;20045;-86
2023/01/16 00:54:02;;;;;;;3.08;1.30;;;4.40;99.90;;;;;;5069996;28;20406;-86
2023/01/16 00:56:27;;;;;;;6.82;1.80;;;4.20;99.90;;;;;;5070581;28;20048;-86
2023/01/16 00:58:53;;;;;;;6.07;1.65;;;4.80;99.90;;;;;;5053742;28;20045;-86
2023/01/16 01:01:19;;;;;;;9.50;1.85;;;4.20;99.90;;;;;;5070385;28;20055;-86
2023/01/16 01:03:45;;;;;;;2.13;1.33;;;4.30;99.90;;;;;;5070147;28;20049;-88
2023/01/16 01:06:11;;;;;;;8.43;1.75;;;4.50;99.90;;;;;;5069711;28;20119;-87
2023/01/16 01:08:37;;;;;;;3.55;1.20;;;4.70;99.90;;;;;;5070047;28;20047;-86
2023/01/16 01:11:08;;;;;;;2.22;1.27;;;4.20;99.90;;;;;;5070138;28;20048;-86
2023/01/16 01:13:33;;;;;;;8.25;1.60;;;4.30;99.90;;;;;;5070520;28;20085;-87
2023/01/16 01:15:59;;;;;;;5.63;1.40;;;4.60;99.90;;;;;;5053534;28;20524;-86
2023/01/16 01:18:25;;;;;;;4.50;1.40;;;4.70;99.90;;;;;;5069929;28;20440;-86
2023/01/16 01:20:50;;;;;;;6.90;1.73;;;4.30;99.90;;;;;;5069998;28;20050;-87
2023/01/16 01:23:16;;;;;;;5.35;1.45;;;4.30;99.90;;;;;;5069911;28;20507;-87
2023/01/16 01:25:42;;;;;;;3.70;1.30;;;4.30;99.90;;;;;;5031412;28;1099562;-86
2023/01/16 01:28:08;;;;;;;4.88;1.60;;;4.40;99.90;;;;;;5070465;28;20079;-86
2023/01/16 01:30:34;;;;;;;9.07;1.80;;;4.70;99.90;;;;;;5071043;28;20119;-86
2023/01/16 01:33:00;;;;;;;4.47;1.40;;;4.50;99.90;;;;;;5037329;28;20056;-86
2023/01/16 01:35:25;;;;;;;9.48;2.03;;;4.40;99.90;;;;;;5070878;28;20144;-86
2023/01/16 01:37:51;;;;;;;3.15;1.38;;;4.40;99.90;;;;;;5070320;28;20562;-87
2023/01/16 01:40:17;;;;;;;5.25;1.50;;;4.40;99.90;;;;;;5053613;28;20051;-86
2023/01/16 01:42:43;;;;;;;4.03;1.30;;;4.40;99.90;;;;;;5069526;28;20131;-86
2023/01/16 01:45:26;;;;;;;3.42;1.42;;;4.40;99.90;;;;;;5070497;28;20133;-87
2023/01/16 01:48:04;;;;;;;4.50;1.60;;;4.40;99.90;;;;;;5070351;28;20172;-88
2023/01/16 01:50:35;;;;;;;3.40;1.30;;;4.40;99.90;;;;;;5070650;28;20087;-86
2023/01/16 01:53:11;;;;;;;4.53;1.42;;;4.40;99.90;;;;;;5070401;28;20082;-86
2023/01/16 01:55:39;;;;;;;4.38;1.25;;;4.40;99.90;;;;;;5070227;28;20048;-87
2023/01/16 01:58:05;;;;;;;6.82;1.88;;;4.40;99.90;;;;;;5070229;28;20095;-86
2023/01/16 02:00:31;;;;;;;3.58;1.30;;;4.40;99.90;;;;;;5070519;28;20083;-87
2023/01/16 02:03:09;;;;;;;2.60;1.23;;;4.40;99.90;;;;;;5069969;28;20060;-86
2023/01/16 02:05:44;;;;;;;4.30;1.40;;;4.40;99.90;;;;;;5053715;28;20055;-88
2023/01/16 02:08:13;;;;;;;1.92;1.08;;;4.40;99.90;;;;;;5069485;28;20056;-86
2023/01/16 02:10:56;;;;;;;3.03;1.85;;;4.40;99.90;;;;;;5070381;28;20047;-86
2023/01/16 02:13:22;;;;;;;5.80;1.10;;;4.40;99.90;;;;;;5070616;28;20079;-86
2023/01/16 02:21:37;;;;;;;4.82;1.23;;;4.70;99.90;;;;;;5069548;28;20066;-86
2023/01/16 02:24:37;;;;;;;4.43;1.40;;;4.40;99.90;;;;;;5069468;28;20045;-87
2023/01/16 02:27:24;;;;;;;5.60;1.90;;;4.40;99.90;;;;;;5070087;28;20436;-86
2023/01/16 02:30:19;;;;;;;13.18;2.05;;;4.50;99.90;;;;;;5070678;28;20056;-86
2023/01/16 02:32:54;;;;;;;6.20;2.15;;;4.40;99.90;;;;;;5070370;28;20239;-87
2023/01/16 02:35:20;;;;;;;3.90;1.30;;;4.50;99.90;;;;;;5070141;28;20045;-87
2023/01/16 02:37:53;;;;;;;4.40;1.42;;;4.70;99.90;;;;;;5071155;28;20048;-87
2023/01/16 02:40:25;;;;;;;3.58;1.73;;;4.40;99.90;;;;;;5069690;28;20052;-87
2023/01/16 02:43:17;;;;;;;8.48;1.50;;;4.40;99.90;;;;;;5069855;28;20535;-86
2023/01/16 02:45:57;;;;;;;4.50;1.52;;;4.40;99.90;;;;;;5070484;28;20052;-87
2023/01/16 02:48:58;;;;;;;5.95;2.00;;;4.40;99.90;;;;;;5070283;28;20113;-86
2023/01/16 02:51:47;;;;;;;5.80;1.70;;;4.40;99.90;;;;;;5053154;28;20453;-87
2023/01/16 02:54:28;;;;;;;4.32;1.80;;;4.40;99.90;;;;;;5071154;28;20056;-87
2023/01/16 02:57:04;;;;;;;2.67;1.45;;;4.40;99.90;;;;;;5073716;28;20045;-88
2023/01/16 02:59:30;;;;;;;3.00;1.52;;;4.40;99.90;;;;;;5073737;28;20110;-88
2023/01/16 03:01:57;;;;;;;2.78;1.33;;;4.60;99.90;;;;;;5072989;28;20123;-89
2023/01/16 03:04:43;;;;;;;5.53;1.98;;;4.50;99.90;;;;;;5073268;28;20091;-86
2023/01/16 03:07:24;;;;;;;3.58;1.80;;;4.30;99.90;;;;;;5073002;28;20048;-86
2023/01/16 03:10:34;;;;;;;3.65;1.60;;;4.30;99.90;;;;;;5073204;28;20509;-87
2023/01/16 03:13:25;;;;;;;8.35;1.92;;;4.20;99.90;;;;;;5073213;28;20197;-87
2023/01/16 03:16:02;;;;;;;5.95;2.08;;;4.20;99.90;;;;;;5073341;28;20406;-87
2023/01/16 03:18:53;;;;;;;6.65;1.60;;;4.20;99.90;;;;;;5073059;28;20052;-88
2023/01/16 03:21:40;;;;;;;2.28;1.70;;;4.10;99.90;;;;;;5072826;28;20052;-87
2023/01/16 03:24:42;;;;;;;6.88;2.13;;;4.20;99.90;;;;;;5072034;28;20097;-87
2023/01/16 03:27:33;;;;;;;5.93;1.95;;;4.20;99.90;;;;;;5072755;28;20057;-86
2023/01/16 03:30:21;;;;;;;8.18;2.65;;;4.20;99.90;;;;;;5072680;28;20393;-88
2023/01/16 03:32:52;;;;;;;5.00;2.60;;;4.30;99.90;;;;;;5056206;28;20048;-87
2023/01/16 03:35:28;;;;;;;5.20;2.42;;;4.60;99.90;;;;;;5072704;28;20058;-87
2023/01/16 03:38:03;;;;;;;3.88;2.40;;;4.40;99.90;;;;;;5072880;28;20048;-87
2023/01/16 03:40:33;;;;;;;3.97;2.63;;;4.60;99.90;;;;;;5072653;28;20501;-87
2023/01/16 03:43:15;;;;;;;5.70;2.70;;;4.30;99.90;;;;;;5072613;28;20049;-89
2023/01/16 03:45:44;;;;;;;9.45;2.67;;;4.30;99.90;;;;;;5072992;28;20067;-87
2023/01/16 03:48:16;;;;;;;7.25;2.95;;;4.30;99.90;;;;;;5055662;28;20060;-87
2023/01/16 03:50:47;;;;;;;7.57;3.33;;;4.20;99.90;;;;;;5072846;28;20060;-87
2023/01/16 03:53:17;;;;;;;5.25;2.67;;;4.20;99.90;;;;;;5072110;28;20082;-89
2023/01/16 03:56:05;;;;;;;7.00;3.00;;;4.50;99.90;;;;;;5072520;28;20036;-87
2023/01/16 03:58:36;;;;;;;6.03;3.30;;;4.30;99.90;;;;;;5072727;28;20056;-87
2023/01/16 04:01:10;;;;;;;10.95;3.70;;;4.00;99.90;;;;;;5072318;28;20127;-88
2023/01/16 04:03:46;;;;;;;9.00;3.88;;;4.00;99.90;;;;;;5072009;28;20051;-87
2023/01/16 04:06:29;;;;;;;9.65;4.13;;;4.00;99.90;;;;;;5071122;28;20671;-86
2023/01/16 04:08:57;;;;;;;9.68;4.22;;;3.90;99.90;;;;;;5071982;28;20102;-86
2023/01/16 04:11:25;;;;;;;13.55;4.47;;;3.90;99.90;;;;;;5072042;28;20045;-86
2023/01/16 04:13:55;;;;;;;10.38;4.13;;;4.60;99.90;;;;;;5072150;28;20044;-87
2023/01/16 04:16:22;;;;;;;11.07;4.78;;;4.10;99.90;;;;;;5071870;28;20053;-87
2023/01/16 04:18:50;;;;;;;11.43;5.43;;;3.90;99.90;;;;;;5072184;28;20076;-87
2023/01/16 04:21:16;;;;;;;12.73;5.60;;;3.90;99.90;;;;;;5071554;28;20052;-87
2023/01/16 04:23:42;;;;;;;10.48;4.90;;;4.30;99.90;;;;;;5071652;28;20048;-87
2023/01/16 04:26:08;;;;;;;13.68;5.25;;;4.30;99.90;;;;;;5071427;28;20493;-87
2023/01/16 04:28:33;;;;;;;14.57;5.38;;;4.40;99.90;;;;;;5072153;28;20062;-87
2023/01/16 04:30:59;;;;;;;14.80;5.95;;;4.20;99.90;;;;;;5072119;28;20165;-87
2023/01/16 04:33:25;;;;;;;14.35;5.53;;;3.90;99.90;;;;;;5071569;28;20056;-87
2023/01/16 04:35:50;;;;;;;12.82;5.18;;;3.90;99.90;;;;;;5055384;28;20136;-88
2023/01/16 04:38:16;;;;;;;14.15;5.45;;;4.00;99.90;;;;;;5054707;28;20052;-88
2023/01/16 04:40:42;;;;;;;13.32;5.75;;;4.60;99.90;;;;;;5071763;28;20045;-86
2023/01/16 04:43:07;;;;;;;13.77;5.68;;;4.50;99.90;;;;;;5071490;28;20041;-87
2023/01/16 04:45:33;;;;;;;13.77;5.40;;;3.90;99.90;;;;;;5055082;28;20060;-87
2023/01/16 04:47:59;;;;;;;12.35;4.88;;;3.90;99.90;;;;;;5071761;28;20052;-87
2023/01/16 04:50:24;;;;;;;10.90;4.43;;;4.40;99.90;;;;;;5071174;28;20051;-87
2023/01/16 04:52:50;;;;;;;15.93;5.22;;;4.20;99.90;;;;;;5071735;28;20052;-87
2023/01/16 04:55:16;;;;;;;9.18;4.70;;;3.90;99.90;;;;;;5071221;28;20048;-87
2023/01/16 04:57:41;;;;;;;10.07;4.03;;;3.80;99.90;;;;;;5055106;28;20048;-86
2023/01/16 05:00:09;;;;;;;10.82;4.55;;;3.80;99.90;;;;;;5071402;28;20044;-87
2023/01/16 05:02:35;;;;;;;9.27;4.28;;;3.70;99.90;;;;;;5071138;28;20102;-87
2023/01/16 05:05:01;;;;;;;9.20;3.60;;;3.70;99.90;;;;;;5054744;28;20041;-87
2023/01/16 05:07:27;;;;;;;12.07;4.10;;;3.60;99.90;;;;;;5071089;28;20044;-87
2023/01/16 05:09:53;;;;;;;13.13;5.35;;;3.50;99.90;;;;;;5071001;28;20604;-86
2023/01/16 05:12:19;;;;;;;10.07;3.85;;;3.40;99.90;;;;;;5071153;28;20055;-87
2023/01/16 05:14:44;;;;;;;7.68;3.50;;;3.40;99.90;;;;;;5071611;28;20458;-87
2023/01/16 05:17:10;;;;;;;9.48;3.63;;;3.80;99.90;;;;;;5070870;28;20410;-86
2023/01/16 05:19:36;;;;;;;8.07;3.55;;;3.40;99.90;;;;;;5071241;28;20127;-87
2023/01/16 05:22:01;;;;;;;11.80;4.38;;;3.40;99.90;;;;;;5071485;28;20052;-86
2023/01/16 05:24:27;;;;;;;8.05;3.67;;;4.10;99.90;;;;;;5070224;28;20494;-87
2023/01/16 05:26:53;;;;;;;11.13;3.80;;;3.30;99.90;;;;;;5071212;28;20075;-86
2023/01/16 05:29:18;;;;;;;6.80;3.17;;;3.30;99.90;;;;;;5070989;28;20080;-87
2023/01/16 05:31:44;;;;;;;12.57;3.95;;;3.30;99.90;;;;;;5071301;28;20117;-87
2023/01/16 05:34:10;;;;;;;7.40;3.42;;;3.20;99.90;;;;;;5054457;28;20497;-86
2023/01/16 05:36:35;;;;;;;17.02;3.65;;;3.20;99.90;;;;;;5071198;28;20052;-86
2023/01/16 05:39:02;;;;;;;9.30;3.55;;;3.10;99.90;;;;;;5071225;28;20044;-86
2023/01/16 05:41:27;;;;;;;;;;;3.10;99.90;;;;;;5071362;28;20220;-87
2023/01/16 05:43:53;;;;;;;8.52;2.88;;;3.10;99.90;;;;;;5054126;28;19930;-87
2023/01/16 05:46:19;;;;;;;10.85;3.58;;;3.40;99.90;;;;;;5070459;28;20094;-87
2023/01/16 05:48:45;;;;;;;11.57;3.13;;;3.10;99.90;;;;;;5071306;28;20486;-86
2023/01/16 05:51:11;;;;;;;12.80;3.47;;;3.50;99.90;;;;;;5070869;28;20049;-88
2023/01/16 05:53:37;;;;;;;9.55;3.42;;;3.10;99.90;;;;;;5054373;28;20052;-86
2023/01/16 05:56:10;;;;;;;13.27;3.35;;;3.10;99.90;;;;;;5071174;28;20051;-86
2023/01/16 05:58:37;;;;;;;6.93;2.90;;;3.20;99.90;;;;;;5071080;28;20114;-86
2023/01/16 06:01:02;;;;;;;;;;;3.60;99.90;;;;;;5071611;28;20044;-87
2023/01/16 06:03:28;;;;;;;5.97;3.17;;;3.20;99.90;;;;;;5053835;28;19950;-86
2023/01/16 06:05:54;;;;;;;11.00;3.80;;;3.60;99.90;;;;;;5070772;28;20088;-86
2023/01/16 06:08:19;;;;;;;10.38;3.58;;;3.30;99.90;;;;;;5070637;28;20522;-85
2023/01/16 06:10:45;;;;;;;11.45;3.05;;;3.30;99.90;;;;;;5070722;28;20064;-86
2023/01/16 06:13:11;;;;;;;14.15;3.00;;;3.30;99.90;;;;;;5070885;28;20041;-88
2023/01/16 06:15:37;;;;;;;6.88;3.47;;;3.30;99.90;;;;;;5070993;28;20056;-86
2023/01/16 06:18:03;;;;;;;10.68;4.07;;;3.40;99.90;;;;;;5071041;28;20547;-86
2023/01/16 06:20:28;;;;;;;11.02;3.30;;;3.40;99.90;;;;;;5070861;28;20043;-87
2023/01/16 06:22:54;;;;;;;4.57;2.53;;;4.00;99.90;;;;;;5054230;28;20051;-88
2023/01/16 06:25:20;;;;;;;6.53;2.95;;;3.20;99.90;;;;;;5069780;28;20489;-86
2023/01/16 06:27:50;;;;;;;7.50;2.70;;;3.30;99.90;;;;;;5070884;28;20045;-88
2023/01/16 06:30:17;;;;;;;5.47;2.63;;;3.20;99.90;;;;;;5074133;28;20452;-86
2023/01/16 06:32:44;;;;;;;10.73;3.15;;;3.20;99.90;;;;;;5074533;28;20056;-89
2023/01/16 06:35:10;;;;;;;4.85;2.30;;;3.20;99.90;;;;;;5074460;28;20052;-86
2023/01/16 06:37:35;;;;;;;6.13;2.47;;;3.20;99.90;;;;;;5073971;28;20059;-86
2023/01/16 06:40:01;;;;;;;8.68;2.90;;;3.70;99.90;;;;;;5074303;28;20063;-86
2023/01/16 06:42:27;;;;;;;7.32;2.78;;;3.40;99.90;;;;;;5074066;28;20044;-86
2023/01/16 06:44:53;;;;;;;;;;;3.10;99.90;;;;;;5074668;28;20083;-86
2023/01/16 06:47:19;;;;;;;7.55;2.85;;;3.10;99.90;;;;;;5057305;28;19955;-86
2023/01/16 06:49:44;;;;;;;8.70;2.67;;;3.10;99.90;;;;;;5074065;28;20132;-86
2023/01/16 06:52:10;;;;;;;10.75;3.35;;;3.10;99.90;;;;;;5057204;28;20044;-85
2023/01/16 06:54:36;;;;;;;12.23;2.55;;;3.10;99.90;;;;;;5073710;28;20133;-86
2023/01/16 06:57:01;;;;;;;9.05;2.50;;;3.70;99.90;;;;;;5074306;28;20044;-85
2023/01/16 06:59:27;;;;;;;8.35;3.28;;;3.10;99.90;;;;;;5073696;28;20120;-85
2023/01/16 07:01:52;;;;;;;9.15;3.10;;;3.10;99.90;;;;;;5057415;28;20051;-85
2023/01/16 07:04:18;;;;;;;6.93;2.25;;;3.20;99.90;;;;;;5073548;28;20052;-85
2023/01/16 07:06:44;;;;;;;8.15;2.78;;;3.00;99.90;;;;;;5073871;28;20052;-85
2023/01/16 07:09:10;;;;;;;6.13;2.78;;;3.80;99.90;;;;;;5073976;28;20044;-86
2023/01/16 07:11:36;;;;;;;7.22;2.58;;;3.30;99.90;;;;;;5073638;28;20598;-86
2023/01/16 07:25:00;;;;;;;8.88;3.58;;;3.40;99.90;;;;;;5073098;28;20060;-85
2023/01/16 07:27:26;;;;;;;17.35;5.88;;;3.90;99.90;;;;;;5073392;28;20056;-85
2023/01/16 07:29:52;;;;;;;5.78;2.65;;;3.10;99.90;;;;;;5073623;28;20493;-85
2023/01/16 07:32:18;;;;;;;8.77;3.00;;;3.20;99.90;;;;;;5039740;28;20067;-89
2023/01/16 07:34:44;;;;;;;;;;;3.50;99.90;;;;;;5073734;28;20055;-86
2023/01/16 07:37:10;;;;;;;6.97;2.97;;;3.20;99.90;;;;;;5073069;28;19935;-87
2023/01/16 07:39:36;;;;;;;12.38;3.35;;;3.20;99.90;;;;;;5072878;28;20084;-85
2023/01/16 07:42:06;;;;;;;14.57;3.45;;;3.20;99.90;;;;;;5056480;28;20080;-86
2023/01/16 07:44:32;;;;;;;11.02;3.30;;;3.20;99.90;;;;;;5072874;28;20060;-85
2023/01/16 07:46:58;;;;;;;6.28;2.80;;;3.20;99.90;;;;;;5056545;28;20037;-86
2023/01/16 07:49:24;;;;;;;9.57;3.10;;;3.30;99.90;;;;;;5072679;28;20040;-85
2023/01/16 07:51:50;;;;;;;8.52;3.30;;;3.20;99.90;;;;;;5072588;28;20462;-85
2023/01/16 07:54:15;;;;;;;6.82;3.30;;;3.60;99.90;;;;;;5072483;28;20054;-86
2023/01/16 07:56:41;;;;;;;8.43;2.97;;;3.30;99.90;;;;;;5072397;28;20044;-86
2023/01/16 07:59:07;;;;;;;8.77;3.20;;;3.20;99.90;;;;;;5072998;28;20037;-85
2023/01/16 08:01:34;;;;;;;9.13;3.10;;;3.30;99.90;;;;;;5072361;28;20432;-90
2023/01/16 08:03:59;;;;;;;14.05;3.20;;;3.30;99.90;;;;;;5072615;28;20049;-82
2023/01/16 08:06:25;;;;;;;6.85;3.15;;;3.30;99.90;;;;;;5072271;28;20521;-87
2023/01/16 08:08:51;;;;;;;7.15;2.92;;;3.80;99.90;;;;;;5072770;28;20045;-83
2023/01/16 08:11:35;;;;;;;6.38;3.25;;;3.40;99.90;;;;;;5056589;28;20040;-83
2023/01/16 08:14:01;;;;;;;9.70;2.75;;;3.40;99.90;;;;;;5073344;28;20102;-83
2023/01/16 08:16:27;;;;;;;5.00;2.63;;;3.40;99.90;;;;;;5072704;28;20086;-84
2023/01/16 08:18:52;;;;;;;10.43;2.70;;;3.40;99.90;;;;;;5073180;28;20079;-84
2023/01/16 08:21:18;;;;;;;9.80;2.80;;;3.50;99.90;;;;;;5056188;28;20440;-85
2023/01/16 08:23:44;;;;;;;7.03;2.90;;;3.90;99.90;;;;;;5072343;28;20041;-85
2023/01/16 08:26:11;;;;;;;;;;;3.80;99.90;;;;;;5073042;28;20052;-84
2023/01/16 08:28:37;;;;;;;9.10;3.03;;;3.50;99.90;;;;;;5072440;28;20380;-84
2023/01/16 08:31:07;;;;;;;5.90;2.53;;;4.10;99.90;;;;;;5072874;28;20071;-84
2023/01/16 08:33:34;;;;;;;4.95;2.70;;;3.50;99.90;;;;;;5072222;28;20139;-84
2023/01/16 08:36:00;;;;;;;8.43;3.25;;;3.60;99.90;;;;;;5071482;28;20045;-84
2023/01/16 08:38:25;;;;;;;8.23;2.42;;;3.80;99.90;;;;;;5071980;28;20551;-85
2023/01/16 08:40:51;;;;;;;8.43;2.15;;;3.60;99.90;;;;;;5072215;28;20473;-85
2023/01/16 08:51:36;;;;;;;5.57;2.15;;;3.80;99.90;;;;;;5071123;28;20127;-69
2023/01/16 08:54:01;;;;;;;3.65;2.10;;;3.90;99.90;;;;;;5070732;28;20379;-72
2023/01/16 08:56:27;;;;;;;4.00;1.85;;;3.90;99.90;;;;;;5071823;28;20044;-71
2023/01/16 08:58:53;;;;;;;4.75;1.92;;;4.00;99.90;;;;;;5071072;28;20040;-70
2023/01/16 09:01:19;;;;;;;4.55;1.50;;;4.00;99.90;;;;;;5071948;28;20055;-70
2023/01/16 09:03:45;;;;;;;5.38;1.75;;;4.00;99.90;;;;;;5071710;28;20064;-69
2023/01/16 09:06:11;;;;;;;2.92;1.73;;;4.00;99.90;;;;;;5071563;28;20044;-69
2023/01/16 09:08:37;;;;;;;3.08;1.52;;;4.00;99.90;;;;;;5071246;28;20052;-77
2023/01/16 09:13:50;;;;;;;3.53;1.70;;;4.10;99.90;;;;;;5071514;28;20079;-76
2023/01/16 09:16:20;;;;;;;4.63;1.50;;;4.10;99.90;;;;;;5071735;28;20505;-77
2023/01/16 09:18:47;;;;;;;3.83;1.60;;;4.10;99.90;;;;;;5070690;28;20651;-78
2023/01/16 09:21:12;;;;;;;;;;;4.00;99.90;;;;;;5071939;28;20433;-77
2023/01/16 09:23:38;;;;;;;2.00;1.13;;;4.00;99.90;;;;;;5070110;28;19920;-77
2023/01/16 09:26:04;;;;;;;2.88;1.45;;;4.00;99.90;;;;;;5053602;28;20057;-76
2023/01/16 09:28:30;;;;;;;2.40;0.98;;;3.90;99.90;;;;;;5071267;28;20045;-77
2023/01/16 09:30:55;;;;;;;5.85;1.27;;;3.90;99.90;;;;;;5071878;28;20083;-76
2023/01/16 09:33:21;;;;;;;5.63;2.35;;;3.90;99.90;;;;;;5071536;28;20473;-76
2023/01/16 09:35:47;;;;;;;1.30;0.90;;;3.90;99.90;;;;;;5071447;28;20135;-76
2023/01/16 09:38:12;;;;;;;2.95;1.10;;;4.10;99.90;;;;;;5053761;28;20047;-76
2023/01/16 09:40:38;;;;;;;4.18;1.02;;;3.90;99.90;;;;;;5070988;28;20052;-77
2023/01/16 09:43:38;;;;;;;5.60;1.15;;;4.20;99.90;;;;;;5070689;28;20397;-76
2023/01/16 09:46:18;;;;;;;1.95;1.20;;;4.00;99.90;;;;;;5070843;28;20490;-77
2023/01/16 09:49:05;;;;;;;2.25;1.25;;;4.00;99.90;;;;;;5070973;28;20040;-78
2023/01/16 09:58:34;;;;;;;3.10;1.38;;;4.00;99.90;;;;;;5071136;28;20048;-79
2023/01/16 10:00:15;;;;;;;2.22;1.30;;;4.10;99.90;;;;;;5071682;28;20059;-76
2023/01/16 10:02:43;;;;;;;1.98;1.20;;;4.10;99.90;;;;;;5068059;28;20481;-76
2023/01/16 10:05:11;;;;;;;6.50;1.20;;;4.10;99.90;;;;;;5072615;28;20052;-78
2023/01/16 10:07:56;;;;;;;1.83;1.00;;;4.20;99.90;;;;;;5074042;28;20045;-77
2023/01/16 10:10:44;;;;;;;6.93;1.70;;;4.10;99.90;;;;;;5072557;28;20080;-77
2023/01/16 10:13:28;;;;;;;3.42;1.38;;;4.10;99.90;;;;;;5074060;28;20041;-79
2023/01/16 10:16:21;;;;;;;3.10;1.50;;;4.10;99.90;;;;;;5073937;28;20481;-78
2023/01/16 10:19:14;;;;;;;1.35;1.10;;;4.10;99.90;;;;;;5074171;28;20045;-76
2023/01/16 10:21:56;;;;;;;4.18;1.50;;;4.00;99.90;;;;;;5072901;28;20053;-76
2023/01/16 10:24:55;;;;;;;3.00;1.30;;;4.00;99.90;;;;;;5073567;28;20504;-76
2023/01/16 10:27:36;;;;;;;1.52;0.93;;;4.00;99.90;;;;;;5074485;28;20405;-77
2023/01/16 10:30:39;;;;;;;3.30;1.83;;;4.00;99.90;;;;;;5074247;28;20052;-77
2023/01/16 10:33:19;;;;;;;1.85;1.55;;;3.90;99.90;;;;;;5069650;28;20132;-77
2023/01/16 10:35:49;;;;;;;3.28;1.23;;;3.90;99.90;;;;;;5073620;28;20056;-75
2023/01/16 10:38:56;;;;;;;3.30;1.50;;;4.30;99.90;;;;;;5074830;28;20056;-76
2023/01/16 10:49:56;;;;;;;3.20;1.17;;;4.00;99.90;;;;;;5073631;28;20099;-76
2023/01/16 10:52:24;;;;;;;4.55;1.40;;;4.20;99.90;;;;;;5074615;28;20079;-76
2023/01/16 10:54:51;;;;;;;2.88;1.17;;;4.00;99.90;;;;;;5073774;28;20055;-78
2023/01/16 10:57:19;;;;;;;4.00;1.40;;;4.30;99.90;;;;;;5073501;28;20056;-76
2023/01/16 10:59:46;;;;;;;4.22;1.27;;;4.00;99.90;;;;;;5074304;28;20122;-77
2023/01/16 11:02:34;;;;;;;4.90;1.20;;;4.00;99.90;;;;;;5074164;28;20505;-78
2023/01/16 11:05:01;;;;;;;3.95;1.38;;;4.00;99.90;;;;;;5073098;28;20080;-76
2023/01/16 11:07:29;;;;;;;3.03;1.15;;;4.00;99.90;;;;;;5074458;28;20052;-76
2023/01/16 11:09:55;;;;;;;2.58;1.30;;;4.00;99.90;;;;;;5073648;28;20044;-77
2023/01/16 11:18:29;;;;;;;5.63;1.83;;;4.00;99.90;;;;;;5074142;28;20110;-76
2023/01/16 11:21:13;;;;;;;3.08;1.20;;;4.00;99.90;;;;;;5072636;28;20066;-78
2023/01/16 11:23:42;;;;;;;4.00;1.00;;;3.90;99.90;;;;;;5073488;28;20150;-77
2023/01/16 11:26:10;;;;;;;2.10;1.17;;;3.90;99.90;;;;;;5074170;28;20393;-78
2023/01/16 11:28:36;;;;;;;3.05;1.65;;;3.90;99.90;;;;;;5073997;28;20052;-83
2023/01/16 11:31:17;;;;;;;4.82;1.40;;;4.10;99.90;;;;;;5072717;28;20151;-79
2023/01/16 11:33:54;;;;;;;3.03;1.30;;;4.00;99.90;;;;;;5072689;28;20056;-77
2023/01/16 11:36:21;;;;;;;2.30;1.23;;;3.90;99.90;;;;;;5073191;28;20041;-77
2023/01/16 11:38:48;;;;;;;2.42;1.42;;;4.00;99.90;;;;;;5072795;28;20048;-78
2023/01/16 11:41:20;;;;;;;4.93;1.35;;;4.00;99.90;;;;;;5073302;28;20059;-76
2023/01/16 11:46:49;;;;;;;2.83;1.27;;;4.20;99.90;;;;;;5073185;28;20044;-76
2023/01/16 11:49:18;;;;;;;4.25;1.73;;;4.00;99.90;;;;;;5073677;28;20393;-77
2023/01/16 11:51:48;;;;;;;8.98;1.38;;;4.10;99.90;;;;;;5073067;28;20048;-76
2023/01/16 11:54:16;;;;;;;2.47;1.65;;;4.10;99.90;;;;;;5072104;28;20515;-76
2023/01/16 11:57:19;;;;;;;5.47;1.95;;;4.10;99.90;;;;;;5072977;28;20497;-81
2023/01/16 11:59:53;;;;;;;2.50;1.33;;;4.20;99.90;;;;;;5030644;28;20048;-77
2023/01/16 12:02:24;;;;;;;3.90;1.15;;;4.20;99.90;;;;;;5072404;28;20048;-79
2023/01/16 12:08:07;;;;;;;6.30;1.67;;;4.30;99.90;;;;;;5072997;28;20051;-78
2023/01/16 12:10:48;;;;;;;2.40;1.60;;;4.30;99.90;;;;;;5073092;28;20049;-76
2023/01/16 12:16:06;;;;;;;3.78;1.70;;;4.40;99.90;;;;;;5072070;28;20134;-84
2023/01/16 12:18:43;;;;;;;2.95;1.60;;;4.40;99.90;;;;;;5072164;28;20048;-79
2023/01/16 12:21:32;;;;;;;9.70;1.80;;;4.40;99.90;;;;;;5071972;28;20061;-80
2023/01/16 12:24:14;;;;;;;1.85;1.33;;;4.40;99.90;;;;;;5072330;28;20071;-78
2023/01/16 12:27:16;;;;;;;2.58;1.38;;;4.40;99.90;;;;;;5072312;28;20049;-78
2023/01/16 12:30:07;;;;;;;2.95;1.67;;;4.40;99.90;;;;;;5053674;28;20060;-83
2023/01/16 12:32:53;;;;;;;3.28;1.50;;;4.40;99.90;;;;;;5072931;28;20375;-77
2023/01/16 12:35:25;;;;;;;3.78;2.10;;;4.40;99.90;;;;;;5071903;28;20056;-78
2023/01/16 12:38:18;;;;;;;2.88;1.63;;;4.40;99.90;;;;;;5072263;28;20429;-78
2023/01/16 12:43:17;;;;;;;4.00;1.90;;;4.40;99.90;;;;;;5072643;28;20051;-83
2023/01/16 12:44:02;;;;;;;2.88;1.35;;;4.40;99.90;;;;;;5072342;28;20104;-83
2023/01/16 12:47:05;;;;;;;4.88;1.70;;;4.40;99.90;;;;;;5071409;28;20114;-78
2023/01/16 12:49:56;;;;;;;3.25;1.20;;;4.50;99.90;;;;;;5072618;28;20144;-76
2023/01/16 12:53:09;;;;;;;2.08;1.30;;;4.50;99.90;;;;;;5072294;28;20185;-79
2023/01/16 12:55:59;;;;;;;1.67;1.45;;;4.50;99.90;;;;;;5063591;28;20059;-80
2023/01/16 12:58:33;;;;;;;1.33;1.23;;;4.50;99.90;;;;;;5072295;28;20478;-77
2023/01/16 13:01:20;;;;;;;3.70;1.63;;;4.50;99.90;;;;;;5071029;28;20486;-77
2023/01/16 13:04:01;;;;;;;1.50;1.15;;;4.70;99.90;;;;;;5071756;28;20044;-84
2023/01/16 13:06:40;;;;;;;1.75;1.20;;;4.50;99.90;;;;;;5071092;28;20049;-78
2023/01/16 13:09:18;;;;;;;2.15;1.38;;;4.50;99.90;;;;;;5070053;28;20633;-77
2023/01/16 13:15:03;;;;;;;1.65;1.27;;;4.50;99.90;;;;;;5071217;28;20490;-77
2023/01/16 13:18:19;;;;;;;4.68;1.50;;;4.60;99.90;;;;;;5071747;28;20071;-77
2023/01/16 13:20:53;;;;;;;1.63;1.40;;;4.60;99.90;;;;;;5026430;28;20082;-76
2023/01/16 13:23:28;;;;;;;1.40;1.30;;;4.70;99.90;;;;;;5070462;28;20105;-79
2023/01/16 13:26:02;;;;;;;4.15;1.40;;;4.80;99.90;;;;;;5071132;28;20056;-77
2023/01/16 13:28:36;;;;;;;2.10;1.42;;;4.90;99.90;;;;;;5071772;28;20049;-79
2023/01/16 13:31:05;;;;;;;7.53;1.55;;;5.00;99.90;;;;;;5070125;28;20048;-80
2023/01/16 13:33:35;;;;;;;2.10;1.13;;;5.00;99.90;;;;;;5070661;28;20044;-83
2023/01/16 13:36:31;;;;;;;1.90;1.13;;;5.00;99.90;;;;;;5070355;28;20040;-80
2023/01/16 13:39:16;;;;;;;3.75;1.13;;;5.00;99.90;;;;;;5069910;28;20076;-82
2023/01/16 13:41:50;;;;;;;1.23;1.10;;;4.90;99.90;;;;;;5069848;28;20067;-81
2023/01/16 13:47:22;;;;;;;1.40;1.02;;;4.90;99.90;;;;;;5069039;28;20058;-79
2023/01/16 13:49:55;;;;;;;5.50;1.10;;;4.80;99.90;;;;;;5071003;28;20048;-77
2023/01/16 13:52:28;;;;;;;3.60;1.10;;;4.80;99.90;;;;;;5070671;28;20040;-76
2023/01/16 13:55:00;;;;;;;2.88;1.20;;;4.80;99.90;;;;;;5070653;28;20044;-76
2023/01/16 13:57:27;;;;;;;1.85;1.02;;;4.70;99.90;;;;;;5071669;28;20088;-77
2023/01/16 13:59:56;;;;;;;2.28;1.20;;;4.70;99.90;;;;;;5071265;28;20052;-80
2023/01/16 14:02:36;;;;;;;2.72;1.23;;;4.90;99.90;;;;;;5070896;28;20041;-79
2023/01/16 14:05:20;;;;;;;1.92;1.33;;;4.80;99.90;;;;;;5070500;28;20051;-79
2023/01/16 14:10:43;;;;;;;1.75;1.20;;;4.90;99.90;;;;;;5070512;28;20052;-77
2023/01/16 14:13:20;;;;;;;2.30;1.00;;;4.80;99.90;;;;;;5069622;28;20500;-79
2023/01/16 14:19:02;;;;;;;4.35;1.20;;;4.90;99.90;;;;;;5069949;28;20052;-81
2023/01/16 14:24:47;;;;;;;2.92;1.17;;;5.10;99.90;;;;;;5070858;28;20061;-78
2023/01/16 14:27:19;;;;;;;3.22;1.33;;;4.80;99.90;;;;;;5070029;28;20063;-79
2023/01/16 14:29:49;;;;;;;3.85;1.20;;;4.90;99.90;;;;;;5070431;28;20375;-79
2023/01/16 14:32:16;;;;;;;1.90;1.02;;;5.20;99.90;;;;;;5070793;28;20040;-79
2023/01/16 14:34:50;;;;;;;1.42;1.15;;;5.20;99.90;;;;;;5070776;28;20080;-80